Karditsa, Greece
Current Conditions -  °F | °C
As of 2:50 PM on Friday 19 Dec 2014 (Local Time) from LGBL Reporting Station
Few Clouds Few Clouds  
Wind Chill: 11°   Ceiling: Unl
Heat Index: 11°   Visibility: 6mi
Dew Point:   Wind: 7mph
Humidity: 82%   Direction: 340°NNW
Pressure: 30.21"   Gusts: NA
Location:  39.37°N, 21.92°E
Report Text: LGBL 191150Z 34006KT 9999 FEW020 11/08 Q1023
Loading
Personal Weather Stations






























Interactive Weather Map New forecast layout! Learn more

10-Day Weather Forecast

Advertisements
Track Severe Weather on mobile